createdAt,value
2023-08-22T00:00:32.758Z,97137.34
2023-08-22T00:02:34.445Z,97139.03
2023-08-22T00:04:37.118Z,97141.00
2023-08-22T00:06:38.782Z,97138.00
2023-08-22T00:08:40.504Z,97134.94
2023-08-22T00:10:42.193Z,97140.41
2023-08-22T00:12:44.413Z,97134.47
2023-08-22T00:14:46.842Z,97127.47
2023-08-22T00:16:49.071Z,97130.53
2023-08-22T00:18:50.594Z,97129.16
2023-08-22T00:20:52.302Z,97130.50
2023-08-22T00:22:54.193Z,97133.88
2023-08-22T00:24:55.825Z,97126.84
2023-08-22T00:26:58.493Z,97130.69
2023-08-22T00:29:00.135Z,97137.97
2023-08-22T00:31:01.770Z,97130.22
2023-08-22T00:33:03.824Z,97131.75
2023-08-22T00:35:05.606Z,97134.38
2023-08-22T00:37:07.784Z,97125.81
2023-08-22T00:39:09.570Z,97128.25
2023-08-22T00:41:11.377Z,97132.81
2023-08-22T00:43:12.969Z,97140.44
2023-08-22T00:45:14.751Z,97137.25
2023-08-22T00:47:17.577Z,97134.06
2023-08-22T00:49:19.385Z,97129.16
2023-08-22T00:51:21.593Z,97131.91
2023-08-22T00:53:23.218Z,97130.25
2023-08-22T00:55:25.362Z,97123.38
2023-08-22T00:57:27.676Z,97120.03
2023-08-22T00:59:30.836Z,97120.03
2023-08-22T01:01:32.840Z,97121.84
2023-08-22T01:03:35.334Z,97119.44
2023-08-22T01:05:43.232Z,97125.38
2023-08-22T01:07:56.384Z,97125.38
2023-08-22T01:10:14.525Z,97118.19
2023-08-22T01:12:41.265Z,97115.50
2023-08-22T01:14:49.946Z,97120.06
2023-08-22T01:16:52.725Z,97121.88
2023-08-22T01:18:54.502Z,97115.16
2023-08-22T01:20:59.429Z,97124.34
2023-08-22T01:23:01.546Z,97124.50
2023-08-22T01:25:03.502Z,97130.72
2023-08-22T01:27:08.309Z,97121.13
2023-08-22T01:29:14.602Z,97119.00
2023-08-22T01:31:34.379Z,97120.53
2023-08-22T01:33:40.640Z,97118.84
2023-08-22T01:35:49.590Z,97111.53
2023-08-22T01:37:54.319Z,97116.41
2023-08-22T01:39:57.797Z,97103.03
2023-08-22T01:42:00.200Z,97108.34
2023-08-22T01:44:04.255Z,97104.84
2023-08-22T01:46:08.248Z,97102.56
2023-08-22T01:48:09.975Z,97099.66
2023-08-22T01:50:12.122Z,97096.31
2023-08-22T01:52:13.759Z,97096.16
2023-08-22T01:54:15.408Z,97085.06
2023-08-22T01:56:16.988Z,97087.03
2023-08-22T01:58:19.081Z,97086.56
2023-08-22T02:00:20.703Z,97090.22
2023-08-22T02:02:22.404Z,97083.84
2023-08-22T02:04:24.029Z,97087.66
2023-08-22T02:06:25.715Z,97082.03
2023-08-22T02:08:27.419Z,97092.97
2023-08-22T02:10:28.976Z,97084.16
2023-08-22T02:12:30.895Z,97080.59
2023-08-22T02:14:32.546Z,97085.97
2023-08-22T02:16:34.979Z,97081.09
2023-08-22T02:18:36.600Z,97075.78
2023-08-22T02:20:38.656Z,97080.19
2023-08-22T02:22:41.263Z,97081.53
2023-08-22T02:24:43.095Z,97075.28
2023-08-22T02:26:44.810Z,97068.59
2023-08-22T02:28:46.557Z,97070.00
2023-08-22T02:30:48.438Z,97073.50
2023-08-22T02:32:50.077Z,97069.53
2023-08-22T02:34:51.722Z,97071.03
2023-08-22T02:36:53.284Z,97068.88
2023-08-22T02:38:55.141Z,97078.16
2023-08-22T02:40:56.822Z,97071.47
2023-08-22T02:42:58.688Z,97070.38
2023-08-22T02:45:00.800Z,97069.19
2023-08-22T02:47:02.375Z,97072.53
2023-08-22T02:49:04.109Z,97070.69
2023-08-22T02:51:06.309Z,97071.94
2023-08-22T02:53:10.780Z,97066.75
2023-08-22T02:55:14.023Z,97067.22
2023-08-22T02:57:15.611Z,97070.88
2023-08-22T02:59:17.761Z,97074.97
2023-08-22T03:01:19.410Z,97070.13
2023-08-22T03:03:21.975Z,97080.16
2023-08-22T03:05:24.307Z,97069.78
2023-08-22T03:07:26.149Z,97072.97
2023-08-22T03:09:27.851Z,97074.81
2023-08-22T03:11:30.240Z,97071.03
2023-08-22T03:13:32.203Z,97071.03
2023-08-22T03:15:33.871Z,97071.63
2023-08-22T03:17:36.659Z,97081.34
2023-08-22T03:19:39.074Z,97081.94
2023-08-22T03:21:40.693Z,97085.91
2023-08-22T03:23:42.325Z,97084.06
2023-08-22T03:25:45.631Z,97077.69
2023-08-22T03:27:47.322Z,97095.00
2023-08-22T03:29:49.486Z,97085.13
2023-08-22T03:31:51.175Z,97079.81
2023-08-22T03:33:53.324Z,97086.50
2023-08-22T03:35:56.709Z,97086.50
2023-08-22T03:37:58.699Z,97082.53
2023-08-22T03:40:02.456Z,97083.78
2023-08-22T03:42:04.664Z,97084.81
2023-08-22T03:44:06.396Z,97078.53
2023-08-22T03:46:11.118Z,97089.31
2023-08-22T03:48:13.998Z,97087.41
2023-08-22T03:50:15.657Z,97082.22
2023-08-22T03:52:17.285Z,97091.59
2023-08-22T03:54:19.015Z,97089.19
2023-08-22T03:56:20.662Z,97086.75
2023-08-22T03:58:23.055Z,97091.16
2023-08-22T04:00:25.063Z,97086.75
2023-08-22T04:02:27.826Z,97078.09
2023-08-22T04:04:29.950Z,97080.69
2023-08-22T04:06:31.601Z,97075.97
2023-08-22T04:08:33.281Z,97075.06
2023-08-22T04:10:36.047Z,97077.06
2023-08-22T04:12:37.611Z,97076.47
2023-08-22T04:14:39.387Z,97079.81
2023-08-22T04:16:41.001Z,97081.31
2023-08-22T04:18:42.624Z,97083.00
2023-08-22T04:20:44.291Z,97084.50
2023-08-22T04:22:46.039Z,97087.72
2023-08-22T04:24:48.527Z,97089.56
2023-08-22T04:26:50.259Z,97094.09
2023-08-22T04:28:52.469Z,97095.63
2023-08-22T04:30:59.295Z,97086.97
2023-08-22T04:33:02.081Z,97092.31
2023-08-22T04:35:04.202Z,97093.81
2023-08-22T04:37:08.249Z,97085.81
2023-08-22T04:39:11.134Z,97094.75
2023-08-22T04:41:13.675Z,97088.25
2023-08-22T04:43:26.963Z,97096.75
2023-08-22T04:45:28.626Z,97091.09
2023-08-22T04:47:30.641Z,97097.72
2023-08-22T04:49:32.554Z,97094.81
2023-08-22T04:51:34.630Z,97099.06
2023-08-22T04:53:36.270Z,97095.28
2023-08-22T04:55:37.953Z,97087.19
2023-08-22T04:57:39.799Z,97090.88
2023-08-22T04:59:41.595Z,97088.34
2023-08-22T05:01:43.437Z,97084.44
2023-08-22T05:03:46.484Z,97085.47
2023-08-22T05:05:48.366Z,97088.31
2023-08-22T05:07:50.412Z,97083.53
2023-08-22T05:09:52.039Z,97086.94
2023-08-22T05:11:54.267Z,97100.81
2023-08-22T05:13:56.630Z,97096.63
2023-08-22T05:15:58.403Z,97084.47
2023-08-22T05:18:00.055Z,97092.88
2023-08-22T05:20:01.714Z,97092.47
2023-08-22T05:22:04.892Z,97095.31
2023-08-22T05:24:06.653Z,97095.13
2023-08-22T05:26:08.805Z,97104.50
2023-08-22T05:28:10.532Z,97097.81
2023-08-22T05:30:12.663Z,97099.41
2023-08-22T05:32:14.236Z,97106.50
2023-08-22T05:34:16.161Z,97109.03
2023-08-22T05:36:17.948Z,97109.91
2023-08-22T05:38:19.791Z,97108.47
2023-08-22T05:40:21.407Z,97115.84
2023-08-22T05:42:24.288Z,97113.06
2023-08-22T05:44:26.765Z,97115.19
2023-08-22T05:46:29.043Z,97114.78
2023-08-22T05:48:31.377Z,97119.41
2023-08-22T05:50:33.131Z,97119.47
2023-08-22T05:52:34.937Z,97122.50
2023-08-22T05:54:37.146Z,97120.53
2023-08-22T05:56:40.210Z,97121.84
2023-08-22T05:58:42.089Z,97133.72
2023-08-22T06:00:44.353Z,97130.13
2023-08-22T06:02:48.293Z,97128.03
2023-08-22T06:04:50.867Z,97133.00
2023-08-22T06:06:52.491Z,97134.19
2023-08-22T06:08:54.159Z,97131.22
2023-08-22T06:10:55.768Z,97136.47
2023-08-22T06:12:57.523Z,97133.00
2023-08-22T06:14:59.111Z,97136.06
2023-08-22T06:17:00.760Z,97130.41
2023-08-22T06:19:02.612Z,97133.97
2023-08-22T06:21:04.263Z,97133.28
2023-08-22T06:23:06.935Z,97131.72
2023-08-22T06:25:09.136Z,97136.00
2023-08-22T06:27:10.708Z,97129.88
2023-08-22T06:29:12.344Z,97125.94
2023-08-22T06:31:13.934Z,97135.94
2023-08-22T06:33:17.898Z,97131.81
2023-08-22T06:35:21.763Z,97137.88
2023-08-22T06:37:23.398Z,97138.53
2023-08-22T06:39:24.984Z,97135.94
2023-08-22T06:41:27.852Z,97132.97
2023-08-22T06:43:29.565Z,97134.47
2023-08-22T06:45:31.752Z,97134.81
2023-08-22T06:47:33.522Z,97134.91
2023-08-22T06:49:36.182Z,97135.00
2023-08-22T06:51:37.838Z,97139.59
2023-08-22T06:53:39.820Z,97136.88
2023-08-22T06:55:42.326Z,97137.59
2023-08-22T06:57:43.932Z,97137.59
2023-08-22T06:59:45.512Z,97142.78
2023-08-22T07:01:47.083Z,97134.78
2023-08-22T07:03:58.899Z,97146.41
2023-08-22T07:06:08.350Z,97136.16
2023-08-22T07:08:09.902Z,97141.25
2023-08-22T07:10:13.841Z,97139.00
2023-08-22T07:12:17.086Z,97140.56
2023-08-22T07:14:18.717Z,97143.56
2023-08-22T07:16:20.344Z,97143.88
2023-08-22T07:18:22.019Z,97131.41
2023-08-22T07:20:23.895Z,97132.69
2023-08-22T07:22:25.860Z,97139.00
2023-08-22T07:24:27.398Z,97138.25
2023-08-22T07:26:29.196Z,97140.63
2023-08-22T07:28:30.905Z,97136.16
2023-08-22T07:30:35.253Z,97146.00
2023-08-22T07:32:36.972Z,97151.09
2023-08-22T07:34:38.701Z,97143.09
2023-08-22T07:36:40.285Z,97150.69
2023-08-22T07:38:41.870Z,97153.91
2023-08-22T07:40:43.477Z,97158.44
2023-08-22T07:42:45.264Z,97156.66
2023-08-22T07:44:46.910Z,97155.41
2023-08-22T07:46:48.518Z,97157.66
2023-08-22T07:48:50.077Z,97151.13
2023-08-22T07:50:51.976Z,97153.66
2023-08-22T07:52:53.729Z,97159.22
2023-08-22T07:54:55.536Z,97165.53
2023-08-22T07:57:08.317Z,97167.44
2023-08-22T07:59:14.553Z,97173.75
2023-08-22T08:01:16.916Z,97163.97
2023-08-22T08:03:18.769Z,97164.94
2023-08-22T08:05:21.018Z,97167.72
2023-08-22T08:07:22.546Z,97163.63
2023-08-22T08:09:34.276Z,97157.59
2023-08-22T08:11:36.870Z,97162.66
2023-08-22T08:13:38.969Z,97160.66
2023-08-22T08:15:42.332Z,97153.78
2023-08-22T08:17:44.112Z,97156.81
2023-08-22T08:19:46.517Z,97158.88
2023-08-22T08:21:48.272Z,97167.41
2023-08-22T08:23:49.954Z,97169.19
2023-08-22T08:25:51.595Z,97159.56
2023-08-22T08:27:53.192Z,97168.41
2023-08-22T08:29:54.763Z,97163.19
2023-08-22T08:31:57.427Z,97166.81
2023-08-22T08:33:59.370Z,97166.84
2023-08-22T08:36:00.966Z,97169.84
2023-08-22T08:38:02.666Z,97174.38
2023-08-22T08:40:07.533Z,97170.34
2023-08-22T08:42:13.454Z,97164.78
2023-08-22T08:44:16.272Z,97166.56
2023-08-22T08:46:18.697Z,97168.84
2023-08-22T08:48:22.044Z,97174.13
2023-08-22T08:50:24.625Z,97171.09
2023-08-22T08:52:27.580Z,97181.44
2023-08-22T08:54:29.939Z,97167.28
2023-08-22T08:56:31.750Z,97178.66
2023-08-22T08:58:33.328Z,97180.41
2023-08-22T09:00:35.347Z,97180.13
2023-08-22T09:02:37.233Z,97174.28
2023-08-22T09:04:38.885Z,97173.31
2023-08-22T09:06:40.453Z,97176.31
2023-08-22T09:09:02.812Z,97173.28
2023-08-22T09:11:05.010Z,97180.34
2023-08-22T09:13:06.624Z,97184.34
2023-08-22T09:15:10.595Z,97180.78
2023-08-22T09:17:16.196Z,97183.53
2023-08-22T09:19:17.912Z,97182.06
2023-08-22T09:21:19.939Z,97186.59
2023-08-22T09:23:29.528Z,97184.53
2023-08-22T09:25:40.198Z,97194.25
2023-08-22T09:27:41.751Z,97193.22
2023-08-22T09:29:43.590Z,97183.81
2023-08-22T09:31:45.236Z,97196.63
2023-08-22T09:33:48.195Z,97185.47
2023-08-22T09:35:56.111Z,97193.50
2023-08-22T09:38:06.093Z,97191.03
2023-08-22T09:40:11.045Z,97195.19
2023-08-22T09:42:12.727Z,97182.59
2023-08-22T09:44:15.256Z,97187.84
2023-08-22T09:46:18.545Z,97179.09
2023-08-22T09:48:25.922Z,97184.47
2023-08-22T09:50:29.166Z,97184.59
2023-08-22T09:52:31.562Z,97186.88
2023-08-22T09:54:34.146Z,97179.69
2023-08-22T09:56:35.765Z,97177.59
2023-08-22T09:58:38.613Z,97188.03
2023-08-22T10:00:40.536Z,97182.13
2023-08-22T10:02:44.253Z,97183.91
2023-08-22T10:04:47.250Z,97177.69
2023-08-22T10:06:52.432Z,97182.94
2023-08-22T10:08:56.535Z,97185.03
2023-08-22T10:10:59.844Z,97191.41
2023-08-22T10:13:04.445Z,97182.72
2023-08-22T10:15:07.922Z,97179.94
2023-08-22T10:17:16.729Z,97184.44
2023-08-22T10:19:20.912Z,97186.47
2023-08-22T10:21:24.795Z,97184.69
2023-08-22T10:23:52.818Z,97174.25
2023-08-22T10:25:54.553Z,97181.78
2023-08-22T10:28:04.713Z,97179.00
2023-08-22T10:30:17.204Z,97182.34
2023-08-22T10:32:22.503Z,97188.63
2023-08-22T10:34:24.366Z,97188.06
2023-08-22T10:36:26.901Z,97187.81
2023-08-22T10:38:28.911Z,97194.63
2023-08-22T10:40:32.900Z,97194.09
2023-08-22T10:42:34.427Z,97192.72
2023-08-22T10:44:38.161Z,97189.72
2023-08-22T10:47:00.116Z,97191.97
2023-08-22T10:49:04.439Z,97189.06
2023-08-22T10:51:07.784Z,97186.09
2023-08-22T10:53:26.172Z,97184.41
2023-08-22T10:55:27.831Z,97178.56
2023-08-22T10:57:37.379Z,97178.09
2023-08-22T11:00:00.127Z,97175.91
2023-08-22T11:02:02.233Z,97181.97
2023-08-22T11:04:06.046Z,97179.84
2023-08-22T11:06:12.593Z,97176.56
2023-08-22T11:08:15.326Z,97175.88
2023-08-22T11:10:19.438Z,97176.44
2023-08-22T11:12:22.420Z,97173.91
2023-08-22T11:14:23.997Z,97173.31
2023-08-22T11:16:25.707Z,97190.75
2023-08-22T11:18:28.213Z,97192.34
2023-08-22T11:20:29.785Z,97185.56
2023-08-22T11:22:33.229Z,97187.53
2023-08-22T11:24:35.315Z,97185.06
2023-08-22T11:26:36.809Z,97185.94
2023-08-22T11:28:38.647Z,97186.03
2023-08-22T11:30:40.296Z,97182.81
2023-08-22T11:32:41.867Z,97186.97
2023-08-22T11:34:43.507Z,97176.75
2023-08-22T11:36:45.118Z,97182.13
2023-08-22T11:38:49.569Z,97181.63
2023-08-22T11:40:51.130Z,97175.13
2023-08-22T11:42:53.115Z,97180.56
2023-08-22T11:45:06.508Z,97177.81
2023-08-22T11:47:12.797Z,97185.03
2023-08-22T11:49:23.377Z,97175.78
2023-08-22T11:51:24.999Z,97173.75
2023-08-22T11:53:30.667Z,97176.41
2023-08-22T11:55:33.256Z,97172.06
2023-08-22T11:57:36.951Z,97178.84
2023-08-22T11:59:41.710Z,97172.69
2023-08-22T12:01:43.757Z,97168.75
2023-08-22T12:03:45.429Z,97167.09
2023-08-22T12:05:49.920Z,97168.78
2023-08-22T12:07:51.577Z,97164.84
2023-08-22T12:10:04.968Z,97175.94
2023-08-22T12:12:13.926Z,97166.28
2023-08-22T12:14:16.877Z,97163.94
2023-08-22T12:16:18.801Z,97164.88
2023-08-22T12:18:31.317Z,97166.38
2023-08-22T12:20:33.773Z,97170.47
2023-08-22T12:22:35.331Z,97166.72
2023-08-22T12:24:37.275Z,97157.78
2023-08-22T12:26:38.910Z,97171.00
2023-08-22T12:28:40.608Z,97169.88
2023-08-22T12:30:42.452Z,97173.28
2023-08-22T12:32:45.044Z,97169.84
2023-08-22T12:34:46.997Z,97164.50
2023-08-22T12:36:48.646Z,97168.22
2023-08-22T12:38:50.183Z,97164.78
2023-08-22T12:40:51.703Z,97162.78
2023-08-22T12:42:53.244Z,97162.59
2023-08-22T12:44:55.020Z,97160.50
2023-08-22T12:46:58.550Z,97161.31
2023-08-22T12:49:00.230Z,97168.94
2023-08-22T12:51:02.232Z,97163.75
2023-08-22T12:53:10.046Z,97161.75
2023-08-22T12:55:11.642Z,97158.72
2023-08-22T12:57:13.243Z,97166.97
2023-08-22T12:59:14.863Z,97162.09
2023-08-22T13:01:17.072Z,97159.81
2023-08-22T13:03:19.783Z,97159.81
2023-08-22T13:05:21.524Z,97155.38
2023-08-22T13:07:23.645Z,97165.59
2023-08-22T13:09:25.252Z,97155.84
2023-08-22T13:11:26.989Z,97160.56
2023-08-22T13:13:28.636Z,97167.88
2023-08-22T13:15:31.349Z,97159.50
2023-08-22T13:17:33.030Z,97161.81
2023-08-22T13:19:34.820Z,97160.97
2023-08-22T13:21:36.766Z,97158.50
2023-08-22T13:23:38.425Z,97151.16
2023-08-22T13:25:41.818Z,97146.28
2023-08-22T13:27:44.249Z,97143.06
2023-08-22T13:29:46.224Z,97144.94
2023-08-22T13:31:48.524Z,97146.03
2023-08-22T13:33:50.320Z,97150.94
2023-08-22T13:35:51.846Z,97146.22
2023-08-22T13:37:53.418Z,97145.69
2023-08-22T13:39:55.094Z,97155.34
2023-08-22T13:41:56.787Z,97149.41
2023-08-22T13:43:58.750Z,97148.66
2023-08-22T13:46:00.282Z,97145.09
2023-08-22T13:48:04.528Z,97147.53
2023-08-22T13:50:07.402Z,97147.13
2023-08-22T13:52:09.021Z,97148.66
2023-08-22T13:54:10.615Z,97149.59
2023-08-22T13:56:14.335Z,97153.53
2023-08-22T13:58:16.828Z,97143.78
2023-08-22T14:00:18.775Z,97136.50
2023-08-22T14:02:20.733Z,97143.81
2023-08-22T14:04:22.440Z,97148.28
2023-08-22T14:06:24.028Z,97150.94
2023-08-22T14:08:25.582Z,97140.78
2023-08-22T14:10:27.126Z,97132.94
2023-08-22T14:12:28.627Z,97134.06
2023-08-22T14:14:30.625Z,97135.56
2023-08-22T14:16:32.969Z,97139.09
2023-08-22T14:18:34.828Z,97135.09
2023-08-22T14:20:36.486Z,97139.09
2023-08-22T14:22:37.976Z,97142.88
2023-08-22T14:24:39.577Z,97145.09
2023-08-22T14:26:41.059Z,97146.75
2023-08-22T14:28:42.850Z,97145.63
2023-08-22T14:30:44.764Z,97135.56
2023-08-22T14:32:46.354Z,97138.34
2023-08-22T14:34:47.883Z,97137.75
2023-08-22T14:36:49.527Z,97139.41
2023-08-22T14:38:52.041Z,97142.28
2023-08-22T14:40:55.782Z,97145.13
2023-08-22T14:42:57.327Z,97142.03
2023-08-22T14:44:58.862Z,97139.09
2023-08-22T14:47:00.778Z,97142.66
2023-08-22T14:49:02.906Z,97137.22
2023-08-22T14:51:04.527Z,97138.28
2023-08-22T14:53:06.078Z,97138.84
2023-08-22T14:55:07.745Z,97142.63
2023-08-22T14:57:11.015Z,97143.22
2023-08-22T14:59:12.836Z,97138.22
2023-08-22T15:01:15.609Z,97137.38
2023-08-22T15:03:17.850Z,97134.56
2023-08-22T15:05:19.529Z,97133.94
2023-08-22T15:07:22.499Z,97129.34
2023-08-22T15:09:24.300Z,97130.78
2023-08-22T15:11:27.147Z,97132.91
2023-08-22T15:13:32.200Z,97123.94
2023-08-22T15:15:36.371Z,97122.44
2023-08-22T15:17:38.247Z,97127.38
2023-08-22T15:19:39.895Z,97117.22
2023-08-22T15:21:41.538Z,97116.00
2023-08-22T15:23:44.354Z,97122.69
2023-08-22T15:25:50.977Z,97110.53
2023-08-22T15:27:52.548Z,97106.19
2023-08-22T15:29:54.066Z,97110.09
2023-08-22T15:31:55.910Z,97111.44
2023-08-22T15:33:57.713Z,97105.41
2023-08-22T15:36:00.698Z,97110.31
2023-08-22T15:38:02.387Z,97107.94
2023-08-22T15:40:08.136Z,97116.47
2023-08-22T15:42:09.950Z,97110.91
2023-08-22T15:44:11.592Z,97112.41
2023-08-22T15:46:13.756Z,97112.56
2023-08-22T15:48:16.729Z,97116.50
2023-08-22T15:50:18.647Z,97107.06
2023-08-22T15:52:30.963Z,97109.13
2023-08-22T15:54:40.832Z,97109.84
2023-08-22T15:56:42.434Z,97110.47
2023-08-22T15:58:44.195Z,97105.81
2023-08-22T16:00:45.833Z,97102.19
2023-08-22T16:02:48.032Z,97107.66
2023-08-22T16:04:49.697Z,97101.31
2023-08-22T16:06:51.168Z,97099.03
2023-08-22T16:08:53.541Z,97094.72
2023-08-22T16:10:55.196Z,97105.34
2023-08-22T16:12:56.794Z,97095.78
2023-08-22T16:14:58.366Z,97094.41
2023-08-22T16:17:00.637Z,97095.72
2023-08-22T16:19:02.218Z,97088.91
2023-08-22T16:21:03.802Z,97095.47
2023-08-22T16:23:05.380Z,97093.66
2023-08-22T16:25:07.616Z,97089.47
2023-08-22T16:27:10.678Z,97091.63
2023-08-22T16:29:12.394Z,97091.94
2023-08-22T16:31:13.998Z,97095.97
2023-08-22T16:33:15.745Z,97094.25
2023-08-22T16:35:17.689Z,97090.31
2023-08-22T16:37:19.309Z,97089.44
2023-08-22T16:39:21.001Z,97092.75
2023-08-22T16:41:23.057Z,97088.69
2023-08-22T16:43:25.463Z,97087.44
2023-08-22T16:45:27.047Z,97087.94
2023-08-22T16:47:28.592Z,97089.53
2023-08-22T16:49:30.133Z,97083.25
2023-08-22T16:51:32.101Z,97085.47
2023-08-22T16:53:40.182Z,97084.56
2023-08-22T16:55:43.796Z,97090.16
2023-08-22T16:57:46.255Z,97092.38
2023-08-22T16:59:48.238Z,97087.34
2023-08-22T17:01:50.867Z,97087.41
2023-08-22T17:03:54.034Z,97087.34
2023-08-22T17:05:55.984Z,97088.75
2023-08-22T17:07:57.566Z,97093.81
2023-08-22T17:09:59.194Z,97090.81
2023-08-22T17:12:00.704Z,97098.72
2023-08-22T17:14:02.898Z,97097.25
2023-08-22T17:16:05.037Z,97102.81
2023-08-22T17:18:06.788Z,97102.91
2023-08-22T17:20:09.932Z,97097.13
2023-08-22T17:22:11.529Z,97094.63
2023-08-22T17:24:14.404Z,97097.72
2023-08-22T17:26:16.834Z,97094.66
2023-08-22T17:28:18.865Z,97099.91
2023-08-22T17:30:20.796Z,97106.00
2023-08-22T17:32:22.477Z,97095.69
2023-08-22T17:34:24.056Z,97091.44
2023-08-22T17:36:26.009Z,97102.09
2023-08-22T17:38:27.596Z,97098.63
2023-08-22T17:40:29.164Z,97102.69
2023-08-22T17:42:31.710Z,97104.25
2023-08-22T17:44:33.296Z,97102.59
2023-08-22T17:46:34.932Z,97094.06
2023-08-22T17:48:36.498Z,97098.22
2023-08-22T17:50:38.066Z,97089.69
2023-08-22T17:52:39.691Z,97099.31
2023-08-22T17:54:41.472Z,97094.06
2023-08-22T17:56:43.313Z,97100.38
2023-08-22T17:58:46.543Z,97102.53
2023-08-22T18:00:52.829Z,97100.28
2023-08-22T18:02:55.185Z,97098.50
2023-08-22T18:04:56.964Z,97100.56
2023-08-22T18:06:58.524Z,97092.56
2023-08-22T18:09:01.556Z,97097.59
2023-08-22T18:11:03.706Z,97099.34
2023-08-22T18:13:05.577Z,97094.34
2023-08-22T18:15:07.493Z,97090.84
2023-08-22T18:17:09.347Z,97091.34
2023-08-22T18:19:11.318Z,97098.94
2023-08-22T18:21:14.059Z,97094.22
2023-08-22T18:23:15.664Z,97100.28
2023-08-22T18:25:17.522Z,97098.31
2023-08-22T18:27:19.083Z,97097.78
2023-08-22T18:29:20.630Z,97099.31
2023-08-22T18:31:22.753Z,97113.66
2023-08-22T18:33:24.973Z,97099.31
2023-08-22T18:35:26.625Z,97102.09
2023-08-22T18:37:28.203Z,97103.31
2023-08-22T18:39:29.795Z,97097.28
2023-08-22T18:41:31.324Z,97110.41
2023-08-22T18:43:32.891Z,97106.38
2023-08-22T18:45:35.113Z,97111.16
2023-08-22T18:47:36.701Z,97110.66
2023-08-22T18:49:38.264Z,97116.97
2023-08-22T18:51:40.330Z,97109.38
2023-08-22T18:53:41.883Z,97110.16
2023-08-22T18:55:43.422Z,97110.41
2023-08-22T18:57:45.279Z,97112.91
2023-08-22T18:59:47.620Z,97101.34
2023-08-22T19:01:49.207Z,97105.84
2023-08-22T19:03:51.079Z,97114.38
2023-08-22T19:05:53.602Z,97112.13
2023-08-22T19:07:55.152Z,97116.69
2023-08-22T19:09:56.694Z,97114.88
2023-08-22T19:11:58.268Z,97113.09
2023-08-22T19:13:59.855Z,97112.84
2023-08-22T19:16:01.895Z,97108.09
2023-08-22T19:18:04.164Z,97115.13
2023-08-22T19:20:06.072Z,97110.59
2023-08-22T19:22:09.305Z,97115.13
2023-08-22T19:24:12.100Z,97116.63
2023-08-22T19:26:13.644Z,97122.91
2023-08-22T19:28:15.192Z,97126.16
2023-08-22T19:30:18.582Z,97122.09
2023-08-22T19:32:35.028Z,97122.34
2023-08-22T19:34:41.768Z,97121.06
2023-08-22T19:36:43.313Z,97110.22
2023-08-22T19:38:44.858Z,97123.72
2023-08-22T19:40:50.158Z,97124.22
2023-08-22T19:42:51.730Z,97128.75
2023-08-22T19:44:54.831Z,97128.97
2023-08-22T19:46:57.830Z,97135.78
2023-08-22T19:48:59.857Z,97133.53
2023-08-22T19:51:04.014Z,97126.50
2023-08-22T19:53:06.091Z,97131.00
2023-08-22T19:55:08.302Z,97128.22
2023-08-22T19:57:10.499Z,97133.47
2023-08-22T19:59:12.191Z,97135.25
2023-08-22T20:01:13.785Z,97143.06
2023-08-22T20:03:15.436Z,97137.50
2023-08-22T20:05:17.681Z,97134.69
2023-08-22T20:07:19.296Z,97138.41
2023-08-22T20:09:21.386Z,97143.03
2023-08-22T20:11:23.376Z,97147.63
2023-08-22T20:13:25.221Z,97143.38
2023-08-22T20:15:26.821Z,97140.56
2023-08-22T20:17:28.505Z,97144.53
2023-08-22T20:19:30.116Z,97143.03
2023-08-22T20:21:31.713Z,97134.22
2023-08-22T20:23:33.368Z,97136.16
2023-08-22T20:25:37.414Z,97141.16
2023-08-22T20:27:39.015Z,97140.44
2023-08-22T20:29:40.661Z,97138.16
2023-08-22T20:31:42.377Z,97136.63
2023-08-22T20:33:44.842Z,97144.16
2023-08-22T20:35:50.121Z,97143.44
2023-08-22T20:37:51.975Z,97140.13
2023-08-22T20:39:53.688Z,97144.94
2023-08-22T20:41:58.137Z,97142.91
2023-08-22T20:43:59.929Z,97145.22
2023-08-22T20:46:02.268Z,97141.22
2023-08-22T20:48:04.196Z,97140.00
2023-08-22T20:50:06.209Z,97141.69
2023-08-22T20:52:07.805Z,97136.47
2023-08-22T20:54:09.671Z,97132.56
2023-08-22T20:56:11.342Z,97143.41
2023-08-22T20:58:12.911Z,97134.97
2023-08-22T21:00:16.470Z,97126.44
2023-08-22T21:02:18.059Z,97136.31
2023-08-22T21:04:19.692Z,97136.06
2023-08-22T21:06:21.292Z,97136.00
2023-08-22T21:08:23.182Z,97125.31
2023-08-22T21:10:24.831Z,97137.44
2023-08-22T21:12:26.546Z,97139.94
2023-08-22T21:14:32.204Z,97134.78
2023-08-22T21:16:34.352Z,97128.56
2023-08-22T21:18:36.574Z,97132.41
2023-08-22T21:20:38.223Z,97136.94
2023-08-22T21:22:40.391Z,97132.63
2023-08-22T21:24:45.548Z,97135.88
2023-08-22T21:26:47.781Z,97133.19
2023-08-22T21:28:49.427Z,97136.50
2023-08-22T21:30:52.498Z,97135.41
2023-08-22T21:32:54.275Z,97137.47
2023-08-22T21:34:55.974Z,97140.03
2023-08-22T21:36:57.942Z,97134.53
2023-08-22T21:38:59.693Z,97141.44
2023-08-22T21:41:02.441Z,97155.13
2023-08-22T21:43:04.145Z,97150.19
2023-08-22T21:45:15.392Z,97147.72
2023-08-22T21:47:16.956Z,97146.69
2023-08-22T21:49:18.997Z,97141.06
2023-08-22T21:51:21.213Z,97154.09
2023-08-22T21:53:22.946Z,97150.72
2023-08-22T21:55:24.493Z,97152.44
2023-08-22T21:57:26.401Z,97151.81
2023-08-22T21:59:28.249Z,97152.91
2023-08-22T22:01:30.621Z,97159.31
2023-08-22T22:03:32.355Z,97151.03
2023-08-22T22:05:34.148Z,97153.13
2023-08-22T22:07:35.869Z,97151.03
2023-08-22T22:09:37.457Z,97159.44
2023-08-22T22:11:38.997Z,97167.69
2023-08-22T22:13:41.186Z,97170.41
2023-08-22T22:15:42.830Z,97164.25
2023-08-22T22:17:44.447Z,97158.81
2023-08-22T22:19:46.070Z,97162.16
2023-08-22T22:21:47.739Z,97161.06
2023-08-22T22:23:49.392Z,97156.94
2023-08-22T22:26:00.649Z,97163.50
2023-08-22T22:28:02.281Z,97168.00
2023-08-22T22:30:04.897Z,97158.38
2023-08-22T22:32:06.552Z,97154.56
2023-08-22T22:34:08.180Z,97154.22
2023-08-22T22:36:10.838Z,97155.13
2023-08-22T22:38:12.511Z,97153.75
2023-08-22T22:40:14.200Z,97159.50
2023-08-22T22:42:15.724Z,97147.31
2023-08-22T22:44:17.720Z,97143.31
2023-08-22T22:46:19.302Z,97147.00
2023-08-22T22:48:20.860Z,97148.56
2023-08-22T22:50:22.426Z,97145.84
2023-08-22T22:52:23.975Z,97145.16
2023-08-22T22:54:25.690Z,97142.09
2023-08-22T22:56:27.347Z,97138.00
2023-08-22T22:58:29.259Z,97144.22
2023-08-22T23:00:30.832Z,97146.22
2023-08-22T23:02:32.857Z,97143.75
2023-08-22T23:04:34.465Z,97140.88
2023-08-22T23:06:36.295Z,97141.16
2023-08-22T23:08:37.940Z,97147.72
2023-08-22T23:10:39.658Z,97147.44
2023-08-22T23:12:41.681Z,97149.88
2023-08-22T23:14:43.354Z,97145.91
2023-08-22T23:16:44.982Z,97146.22
2023-08-22T23:18:46.561Z,97147.00
2023-08-22T23:20:48.308Z,97144.38
2023-08-22T23:22:50.666Z,97148.03
2023-08-22T23:24:52.215Z,97142.25
2023-08-22T23:26:53.758Z,97144.69
2023-08-22T23:28:55.306Z,97145.44
2023-08-22T23:30:56.902Z,97142.69
2023-08-22T23:32:58.518Z,97144.38
2023-08-22T23:35:02.077Z,97144.38
2023-08-22T23:37:03.982Z,97143.63
2023-08-22T23:39:05.760Z,97142.84
2023-08-22T23:41:07.317Z,97148.50
2023-08-22T23:43:08.993Z,97154.28
2023-08-22T23:45:10.702Z,97149.13
2023-08-22T23:47:13.160Z,97145.31
2023-08-22T23:49:14.708Z,97145.19
2023-08-22T23:51:17.646Z,97140.75
2023-08-22T23:53:20.494Z,97147.00
2023-08-22T23:55:22.349Z,97143.94
2023-08-22T23:57:23.933Z,97143.50
2023-08-22T23:59:25.484Z,97139.53
